< < Back
Terminal Aerodrome Forecast


Current Version              Previous Versions:   1  2  3  4  5  6  7  8  9  

Terminal Aerodrome Forecast

921
FTUS42 KCAE 111139
TAFCAE
TAF
KCAE 111139Z 1112/1212 26004KT P6SM SCT250
     FM111800 27008KT P6SM SCT060 BKN250
     FM120000 VRB03KT P6SM OVC080=

Latest METAR

579
SAUS80 KWBC 111300
MTRCAE
METAR KCAE 111256Z 20005KT 10SM CLR M02/M09 A3022 RMK AO2 SLP236
T10171089


USA.gov is the U.S. government's official web portal to all federal, state and local government web resources and services.